createdAt,value
2017-11-08T00:00:14.816Z,3.30
2017-11-08T00:02:43.118Z,3.57
2017-11-08T00:05:11.447Z,4.30
2017-11-08T00:07:39.995Z,4.20
2017-11-08T00:10:08.924Z,3.93
2017-11-08T00:12:38.321Z,3.50
2017-11-08T00:15:06.804Z,3.80
2017-11-08T00:17:35.209Z,3.30
2017-11-08T00:20:03.618Z,3.70
2017-11-08T00:22:32.273Z,3.40
2017-11-08T00:25:01.175Z,3.90
2017-11-08T00:27:30.321Z,3.97
2017-11-08T00:29:58.730Z,4.03
2017-11-08T00:32:27.691Z,3.77
2017-11-08T00:34:56.003Z,3.87
2017-11-08T00:37:24.363Z,3.40
2017-11-08T00:39:53.272Z,3.90
2017-11-08T00:42:23.365Z,3.57
2017-11-08T00:44:51.668Z,3.60
2017-11-08T00:47:20.655Z,3.77
2017-11-08T00:49:49.763Z,4.00
2017-11-08T00:52:18.272Z,3.67
2017-11-08T00:54:46.651Z,4.00
2017-11-08T00:57:16.794Z,3.70
2017-11-08T00:59:45.188Z,3.37
2017-11-08T01:02:13.499Z,4.23
2017-11-08T01:04:42.707Z,3.87
2017-11-08T01:07:11.085Z,4.17
2017-11-08T01:09:39.445Z,3.63
2017-11-08T01:12:07.760Z,3.97
2017-11-08T01:14:36.129Z,3.57
2017-11-08T01:17:04.478Z,3.33
2017-11-08T01:19:32.872Z,3.43
2017-11-08T01:22:01.960Z,3.97
2017-11-08T01:24:30.566Z,3.80
2017-11-08T01:26:59.675Z,4.47
2017-11-08T01:29:28.805Z,3.43
2017-11-08T01:31:57.156Z,3.70
2017-11-08T01:34:25.531Z,4.33
2017-11-08T01:36:59.474Z,3.37
2017-11-08T01:39:27.817Z,3.50
2017-11-08T01:41:55.991Z,3.30
2017-11-08T01:44:26.083Z,3.67
2017-11-08T01:46:54.443Z,3.67
2017-11-08T01:49:23.413Z,3.70
2017-11-08T01:51:51.794Z,3.67
2017-11-08T01:54:20.708Z,3.87
2017-11-08T01:56:49.910Z,3.60
2017-11-08T01:59:18.735Z,3.80
2017-11-08T02:01:47.813Z,2.83
2017-11-08T02:04:16.114Z,3.53
2017-11-08T02:06:44.512Z,4.07
2017-11-08T02:09:12.836Z,3.17
2017-11-08T02:11:41.273Z,4.67
2017-11-08T02:14:10.340Z,3.40
2017-11-08T02:16:38.694Z,3.80
2017-11-08T02:19:12.715Z,3.70
2017-11-08T02:21:40.568Z,3.43
2017-11-08T02:24:09.690Z,3.60
2017-11-08T02:26:38.788Z,3.50
2017-11-08T02:29:07.143Z,3.57
2017-11-08T02:31:35.544Z,3.07
2017-11-08T02:34:05.716Z,3.40
2017-11-08T02:36:34.075Z,3.50
2017-11-08T02:39:02.422Z,3.30
2017-11-08T02:41:31.553Z,3.23
2017-11-08T02:43:59.892Z,3.73
2017-11-08T02:46:28.207Z,3.63
2017-11-08T02:48:56.580Z,3.67
2017-11-08T02:51:24.958Z,3.17
2017-11-08T02:53:54.071Z,4.30
2017-11-08T02:56:22.439Z,3.53
2017-11-08T02:58:50.740Z,3.70
2017-11-08T03:01:19.080Z,3.40
2017-11-08T03:03:47.383Z,3.03
2017-11-08T03:06:15.200Z,3.77
2017-11-08T03:08:43.524Z,3.47
2017-11-08T03:11:11.862Z,3.30
2017-11-08T03:13:40.988Z,3.10
2017-11-08T03:16:09.400Z,3.20
2017-11-08T03:18:37.759Z,2.73
2017-11-08T03:21:06.158Z,3.57
2017-11-08T03:23:34.506Z,3.40
2017-11-08T03:26:02.916Z,3.63
2017-11-08T03:28:31.276Z,3.17
2017-11-08T03:30:59.644Z,3.20
2017-11-08T03:33:27.980Z,3.50
2017-11-08T03:35:56.315Z,3.50
2017-11-08T03:38:24.673Z,3.10
2017-11-08T03:40:52.976Z,2.90
2017-11-08T03:43:21.338Z,3.03
2017-11-08T03:45:49.704Z,3.40
2017-11-08T03:48:17.998Z,3.17
2017-11-08T03:50:46.350Z,3.47
2017-11-08T03:53:15.456Z,3.00
2017-11-08T03:55:43.929Z,3.40
2017-11-08T03:58:12.282Z,3.20
2017-11-08T04:00:41.409Z,3.53
2017-11-08T04:03:09.695Z,3.00
2017-11-08T04:05:38.074Z,3.30
2017-11-08T04:08:06.383Z,3.10
2017-11-08T04:10:34.779Z,2.97
2017-11-08T04:13:02.920Z,3.10
2017-11-08T04:15:31.240Z,3.80
2017-11-08T04:17:59.455Z,3.07
2017-11-08T04:20:27.792Z,3.30
2017-11-08T04:22:56.123Z,3.17
2017-11-08T04:25:24.484Z,2.97
2017-11-08T04:27:52.827Z,3.00
2017-11-08T04:30:21.139Z,3.80
2017-11-08T04:32:49.478Z,3.10
2017-11-08T04:35:18.400Z,2.80
2017-11-08T04:37:47.524Z,3.20
2017-11-08T04:40:15.899Z,2.67
2017-11-08T04:42:44.813Z,3.20
2017-11-08T04:45:13.163Z,3.53
2017-11-08T04:47:42.117Z,3.40
2017-11-08T04:50:10.445Z,2.80
2017-11-08T04:52:38.820Z,3.33
2017-11-08T04:55:07.066Z,3.43
2017-11-08T04:57:35.373Z,3.60
2017-11-08T05:00:03.748Z,2.87
2017-11-08T05:02:32.124Z,2.60
2017-11-08T05:05:00.500Z,3.10
2017-11-08T05:07:28.829Z,2.80
2017-11-08T05:09:57.211Z,3.63
2017-11-08T05:12:25.538Z,2.97
2017-11-08T05:14:53.906Z,3.20
2017-11-08T05:17:22.296Z,3.10
2017-11-08T05:19:50.677Z,3.10
2017-11-08T05:22:19.054Z,2.80
2017-11-08T05:24:47.738Z,3.07
2017-11-08T05:27:16.090Z,2.70
2017-11-08T05:29:45.342Z,3.50
2017-11-08T05:32:13.735Z,3.67
2017-11-08T05:34:42.173Z,2.70
2017-11-08T05:37:10.530Z,3.33
2017-11-08T05:39:38.932Z,3.30
2017-11-08T05:42:07.895Z,2.97
2017-11-08T05:44:36.198Z,2.93
2017-11-08T05:47:04.479Z,3.73
2017-11-08T05:49:32.591Z,2.80
2017-11-08T05:52:01.001Z,3.17
2017-11-08T05:54:29.412Z,3.10
2017-11-08T05:56:57.793Z,2.87
2017-11-08T05:59:26.175Z,3.30
2017-11-08T06:01:54.623Z,3.17
2017-11-08T06:04:23.026Z,2.93
2017-11-08T06:06:51.415Z,3.63
2017-11-08T06:09:19.791Z,3.23
2017-11-08T06:11:48.342Z,2.73
2017-11-08T06:14:16.650Z,2.93
2017-11-08T06:16:45.054Z,2.67
2017-11-08T06:19:13.416Z,3.70
2017-11-08T06:21:41.544Z,3.03
2017-11-08T06:24:09.923Z,3.47
2017-11-08T06:26:38.039Z,3.00
2017-11-08T06:29:06.410Z,2.80
2017-11-08T06:31:34.761Z,2.57
2017-11-08T06:34:04.064Z,2.80
2017-11-08T06:36:32.469Z,3.67
2017-11-08T06:39:00.875Z,2.90
2017-11-08T06:41:29.290Z,3.17
2017-11-08T06:43:57.960Z,2.73
2017-11-08T06:46:27.800Z,3.23
2017-11-08T06:48:56.178Z,2.57
2017-11-08T06:51:25.399Z,3.03
2017-11-08T06:53:53.760Z,2.97
2017-11-08T06:56:22.151Z,2.80
2017-11-08T06:58:50.547Z,2.53
2017-11-08T07:01:18.686Z,3.57
2017-11-08T07:03:47.795Z,2.87
2017-11-08T07:06:16.980Z,2.77
2017-11-08T07:08:45.367Z,3.00
2017-11-08T07:11:13.765Z,2.97
2017-11-08T07:13:42.420Z,3.13
2017-11-08T07:16:10.796Z,2.93
2017-11-08T07:18:39.202Z,3.00
2017-11-08T07:21:08.264Z,2.93
2017-11-08T07:23:36.655Z,2.80
2017-11-08T07:26:06.128Z,2.80
2017-11-08T07:28:35.797Z,3.13
2017-11-08T07:31:03.923Z,2.30
2017-11-08T07:33:32.493Z,3.00
2017-11-08T07:36:00.806Z,2.63
2017-11-08T07:38:29.942Z,2.80
2017-11-08T07:40:58.276Z,2.83
2017-11-08T07:43:26.644Z,3.07
2017-11-08T07:45:55.042Z,2.83
2017-11-08T07:48:23.417Z,3.00
2017-11-08T07:50:52.356Z,2.53
2017-11-08T07:53:20.702Z,3.07
2017-11-08T07:56:03.949Z,2.77
2017-11-08T07:58:32.627Z,3.53
2017-11-08T08:01:00.997Z,3.00
2017-11-08T08:03:34.567Z,2.73
2017-11-08T08:06:02.950Z,2.83
2017-11-08T08:08:31.470Z,2.60
2017-11-08T08:11:06.162Z,2.70
2017-11-08T08:13:34.546Z,2.73
2017-11-08T08:16:03.677Z,3.00
2017-11-08T08:18:32.087Z,3.50
2017-11-08T08:21:00.410Z,2.83
2017-11-08T08:23:28.816Z,3.10
2017-11-08T08:25:57.230Z,2.90
2017-11-08T08:28:25.531Z,3.20
2017-11-08T08:30:53.849Z,3.30
2017-11-08T08:33:22.200Z,2.50
2017-11-08T08:35:50.741Z,3.17
2017-11-08T08:38:19.107Z,4.03
2017-11-08T08:40:47.480Z,3.97
2017-11-08T08:43:15.824Z,4.87
2017-11-08T08:45:44.909Z,4.30
2017-11-08T08:48:14.008Z,4.37
2017-11-08T08:50:42.351Z,4.17
2017-11-08T08:53:10.740Z,3.63
2017-11-08T08:55:39.137Z,4.60
2017-11-08T08:58:08.986Z,4.40
2017-11-08T09:00:37.394Z,4.77
2017-11-08T09:03:05.712Z,4.73
2017-11-08T09:05:34.772Z,4.40
2017-11-08T09:08:03.106Z,4.10
2017-11-08T09:10:31.432Z,4.57
2017-11-08T09:12:59.823Z,5.70
2017-11-08T09:15:28.009Z,4.50
2017-11-08T09:17:56.401Z,4.73
2017-11-08T09:20:26.489Z,4.60
2017-11-08T09:22:54.871Z,4.73
2017-11-08T09:25:37.994Z,4.77
2017-11-08T09:28:06.375Z,4.30
2017-11-08T09:30:34.650Z,3.80
2017-11-08T09:33:03.026Z,4.60
2017-11-08T09:35:31.581Z,4.83
2017-11-08T09:38:05.335Z,4.03
2017-11-08T09:40:39.090Z,5.63
2017-11-08T09:43:22.145Z,4.63
2017-11-08T09:45:50.490Z,4.77
2017-11-08T09:48:18.900Z,5.10
2017-11-08T09:50:47.290Z,5.40
2017-11-08T09:53:16.090Z,5.27
2017-11-08T09:55:44.277Z,5.33
2017-11-08T09:58:12.901Z,5.00
2017-11-08T10:00:41.056Z,5.43
2017-11-08T10:03:09.423Z,4.80
2017-11-08T10:05:38.615Z,5.03
2017-11-08T10:08:10.377Z,4.07
2017-11-08T10:10:38.858Z,5.17
2017-11-08T10:13:11.169Z,4.33
2017-11-08T10:15:40.321Z,4.73
2017-11-08T10:18:19.879Z,5.27
2017-11-08T10:20:48.290Z,5.10
2017-11-08T10:23:31.146Z,4.30
2017-11-08T10:25:59.472Z,4.40
2017-11-08T10:28:27.815Z,5.00
2017-11-08T10:30:56.147Z,4.20
2017-11-08T10:33:24.472Z,5.17
2017-11-08T10:35:53.630Z,4.23
2017-11-08T10:38:22.343Z,4.37
2017-11-08T10:40:50.659Z,4.40
2017-11-08T10:43:18.972Z,4.80
2017-11-08T10:45:47.304Z,4.23
2017-11-08T10:48:15.647Z,4.80
2017-11-08T10:50:44.861Z,4.30
2017-11-08T10:53:13.221Z,5.10
2017-11-08T10:55:41.570Z,4.90
2017-11-08T10:58:09.759Z,4.60
2017-11-08T11:00:52.573Z,5.00
2017-11-08T11:03:26.581Z,4.47
2017-11-08T11:05:54.962Z,4.53
2017-11-08T11:08:23.341Z,5.23
2017-11-08T11:10:51.667Z,6.70
2017-11-08T11:13:19.994Z,6.27
2017-11-08T11:15:49.040Z,5.03
2017-11-08T11:18:17.473Z,5.73
2017-11-08T11:20:47.673Z,5.27
2017-11-08T11:23:15.995Z,5.90
2017-11-08T11:25:46.915Z,5.97
2017-11-08T11:28:15.292Z,5.43
2017-11-08T11:30:44.594Z,5.40
2017-11-08T11:33:12.936Z,6.07
2017-11-08T11:35:41.335Z,5.63
2017-11-08T11:38:12.186Z,5.70
2017-11-08T11:40:40.550Z,5.90
2017-11-08T11:43:09.319Z,6.43
2017-11-08T11:45:37.687Z,6.27
2017-11-08T11:48:19.153Z,5.13
2017-11-08T11:50:48.264Z,5.97
2017-11-08T11:53:16.770Z,5.50
2017-11-08T11:55:45.093Z,5.63
2017-11-08T11:58:14.213Z,5.47
2017-11-08T12:00:42.609Z,5.50
2017-11-08T12:03:11.088Z,4.83
2017-11-08T12:05:41.125Z,5.83
2017-11-08T12:08:09.554Z,5.40
2017-11-08T12:10:37.935Z,13.40
2017-11-08T12:13:06.317Z,17.90
2017-11-08T12:15:35.232Z,17.70
2017-11-08T12:18:03.715Z,19.03
2017-11-08T12:20:32.175Z,19.37
2017-11-08T12:23:00.541Z,20.27
2017-11-08T12:25:29.681Z,21.60
2017-11-08T12:27:58.054Z,18.27
2017-11-08T12:30:26.404Z,16.60
2017-11-08T12:32:55.529Z,15.50
2017-11-08T12:35:24.824Z,14.97
2017-11-08T12:37:52.995Z,12.90
2017-11-08T12:40:22.543Z,12.20
2017-11-08T12:42:50.412Z,11.60
2017-11-08T12:45:18.370Z,12.63
2017-11-08T12:47:46.765Z,10.07
2017-11-08T12:50:15.140Z,9.80
2017-11-08T12:52:43.529Z,11.17
2017-11-08T12:55:12.481Z,9.90
2017-11-08T12:57:47.167Z,10.10
2017-11-08T13:00:15.757Z,10.03
2017-11-08T13:02:46.861Z,9.00
2017-11-08T13:05:15.229Z,10.03
2017-11-08T13:07:43.593Z,9.77
2017-11-08T13:10:11.999Z,8.77
2017-11-08T13:12:40.303Z,8.90
2017-11-08T13:15:08.733Z,9.07
2017-11-08T13:17:37.109Z,8.40
2017-11-08T13:20:05.452Z,9.53
2017-11-08T13:22:34.372Z,8.40
2017-11-08T13:25:02.701Z,8.60
2017-11-08T13:27:31.173Z,8.80
2017-11-08T13:29:59.509Z,8.70
2017-11-08T13:32:28.488Z,8.50
2017-11-08T13:34:57.668Z,7.80
2017-11-08T13:37:26.902Z,9.53
2017-11-08T13:39:55.328Z,7.90
2017-11-08T13:42:23.623Z,8.67
2017-11-08T13:44:53.520Z,8.20
2017-11-08T13:47:22.141Z,8.87
2017-11-08T13:49:51.314Z,9.97
2017-11-08T13:52:19.706Z,8.50
2017-11-08T13:54:48.900Z,9.00
2017-11-08T13:57:18.645Z,7.90
2017-11-08T13:59:47.614Z,8.67
2017-11-08T14:02:16.089Z,8.80
2017-11-08T14:04:44.441Z,11.00
2017-11-08T14:07:13.852Z,8.97
2017-11-08T14:09:42.153Z,9.77
2017-11-08T14:12:10.529Z,9.60
2017-11-08T14:14:38.911Z,10.00
2017-11-08T14:17:07.262Z,9.40
2017-11-08T14:19:35.646Z,10.40
2017-11-08T14:22:04.564Z,9.50
2017-11-08T14:24:32.967Z,10.90
2017-11-08T14:27:02.189Z,9.67
2017-11-08T14:29:35.089Z,10.10
2017-11-08T14:32:04.170Z,9.53
2017-11-08T14:34:32.559Z,9.43
2017-11-08T14:37:03.845Z,11.03
2017-11-08T14:39:33.040Z,10.50
2017-11-08T14:42:06.950Z,9.53
2017-11-08T14:44:35.454Z,10.73
2017-11-08T14:47:04.580Z,9.60
2017-11-08T14:49:33.003Z,11.37
2017-11-08T14:52:01.340Z,9.97
2017-11-08T14:54:29.571Z,11.00
2017-11-08T14:56:58.862Z,11.30
2017-11-08T14:59:27.369Z,10.90
2017-11-08T15:01:58.175Z,11.17
2017-11-08T15:04:27.887Z,10.73
2017-11-08T15:06:56.297Z,11.73
2017-11-08T15:09:25.419Z,10.20
2017-11-08T15:11:58.634Z,11.00
2017-11-08T15:14:27.017Z,10.90
2017-11-08T15:16:55.368Z,10.90
2017-11-08T15:19:24.308Z,10.73
2017-11-08T15:21:52.686Z,10.23
2017-11-08T15:24:21.142Z,9.50
2017-11-08T15:26:49.623Z,10.17
2017-11-08T15:29:18.715Z,10.27
2017-11-08T15:31:47.812Z,11.50
2017-11-08T15:34:16.297Z,11.07
2017-11-08T15:36:45.386Z,11.33
2017-11-08T15:39:13.744Z,11.43
2017-11-08T15:41:42.146Z,10.97
2017-11-08T15:44:10.529Z,11.03
2017-11-08T15:46:45.026Z,10.90
2017-11-08T15:49:17.146Z,11.20
2017-11-08T15:51:45.593Z,9.73
2017-11-08T15:54:13.972Z,11.40
2017-11-08T15:56:42.390Z,10.27
2017-11-08T15:59:10.743Z,10.87
2017-11-08T16:01:42.070Z,11.07
2017-11-08T16:04:12.823Z,11.63
2017-11-08T16:06:41.387Z,12.67
2017-11-08T16:09:10.597Z,11.63
2017-11-08T16:11:38.953Z,11.30
2017-11-08T16:14:08.075Z,11.87
2017-11-08T16:16:37.188Z,11.93
2017-11-08T16:19:05.668Z,10.90
2017-11-08T16:21:34.744Z,11.47
2017-11-08T16:24:03.110Z,12.57
2017-11-08T16:26:31.430Z,11.07
2017-11-08T16:28:59.821Z,11.70
2017-11-08T16:31:28.156Z,12.07
2017-11-08T16:33:56.535Z,11.77
2017-11-08T16:36:24.870Z,11.63
2017-11-08T16:38:53.692Z,11.83
2017-11-08T16:41:22.089Z,11.93
2017-11-08T16:43:50.888Z,11.17
2017-11-08T16:46:19.258Z,12.23
2017-11-08T16:48:47.653Z,11.17
2017-11-08T16:51:16.253Z,12.90
2017-11-08T16:53:44.641Z,10.17
2017-11-08T16:56:13.262Z,11.00
2017-11-08T16:58:41.640Z,13.07
2017-11-08T17:01:10.219Z,11.77
2017-11-08T17:03:39.170Z,11.43
2017-11-08T17:06:07.583Z,12.27
2017-11-08T17:08:36.698Z,11.60
2017-11-08T17:11:05.103Z,11.53
2017-11-08T17:13:33.450Z,11.13
2017-11-08T17:16:01.792Z,11.37
2017-11-08T17:18:30.160Z,11.60
2017-11-08T17:20:58.522Z,11.03
2017-11-08T17:23:26.910Z,11.03
2017-11-08T17:25:55.326Z,11.80
2017-11-08T17:28:23.685Z,11.27
2017-11-08T17:30:52.976Z,13.00
2017-11-08T17:33:21.648Z,11.30
2017-11-08T17:35:49.981Z,11.87
2017-11-08T17:38:18.327Z,11.73
2017-11-08T17:40:46.886Z,11.13
2017-11-08T17:43:15.252Z,10.20
2017-11-08T17:45:44.053Z,11.80
2017-11-08T17:48:13.452Z,11.90
2017-11-08T17:50:42.550Z,10.20
2017-11-08T17:53:11.509Z,12.40
2017-11-08T17:55:40.332Z,10.47
2017-11-08T17:58:09.332Z,10.80
2017-11-08T18:00:38.689Z,11.20
2017-11-08T18:03:07.351Z,10.53
2017-11-08T18:05:36.820Z,11.47
2017-11-08T18:08:05.205Z,12.10
2017-11-08T18:10:34.512Z,10.43
2017-11-08T18:13:02.846Z,11.10
2017-11-08T18:15:31.255Z,10.80
2017-11-08T18:17:59.606Z,12.30
2017-11-08T18:20:27.985Z,11.53
2017-11-08T18:22:57.124Z,11.63
2017-11-08T18:25:25.508Z,10.30
2017-11-08T18:27:53.834Z,10.33
2017-11-08T18:30:22.215Z,10.70
2017-11-08T18:32:50.573Z,10.90
2017-11-08T18:35:18.925Z,10.50
2017-11-08T18:37:47.119Z,11.10
2017-11-08T18:40:16.393Z,11.43
2017-11-08T18:42:44.849Z,11.33
2017-11-08T18:45:13.845Z,11.00
2017-11-08T18:47:42.188Z,11.20
2017-11-08T18:50:11.263Z,12.00
2017-11-08T18:52:39.823Z,11.53
2017-11-08T18:55:08.643Z,11.03
2017-11-08T18:57:37.050Z,11.00
2017-11-08T19:00:06.173Z,10.90
2017-11-08T19:02:34.509Z,10.80
2017-11-08T19:05:03.635Z,10.60
2017-11-08T19:07:32.501Z,10.57
2017-11-08T19:10:03.396Z,9.57
2017-11-08T19:12:34.828Z,9.10
2017-11-08T19:15:03.142Z,10.20
2017-11-08T19:17:32.261Z,10.07
2017-11-08T19:20:01.510Z,9.50
2017-11-08T19:22:30.244Z,9.90
2017-11-08T19:24:58.754Z,9.90
2017-11-08T19:27:26.880Z,9.27
2017-11-08T19:29:55.177Z,10.07
2017-11-08T19:32:28.306Z,9.13
2017-11-08T19:34:56.796Z,9.03
2017-11-08T19:37:25.131Z,8.80
2017-11-08T19:39:54.278Z,9.43
2017-11-08T19:42:22.645Z,10.13
2017-11-08T19:44:51.062Z,10.43
2017-11-08T19:47:19.436Z,9.43
2017-11-08T19:49:47.791Z,9.10
2017-11-08T19:52:17.434Z,9.23
2017-11-08T19:54:45.864Z,8.77
2017-11-08T19:57:15.508Z,8.83
2017-11-08T19:59:44.578Z,7.50
2017-11-08T20:02:13.160Z,9.03
2017-11-08T20:04:42.374Z,9.60
2017-11-08T20:07:11.071Z,7.47
2017-11-08T20:09:39.645Z,9.90
2017-11-08T20:12:09.046Z,8.00
2017-11-08T20:14:38.021Z,7.90
2017-11-08T20:17:06.427Z,8.00
2017-11-08T20:19:35.601Z,7.20
2017-11-08T20:22:04.476Z,7.80
2017-11-08T20:24:33.085Z,8.10
2017-11-08T20:27:01.580Z,8.03
2017-11-08T20:29:30.257Z,8.17
2017-11-08T20:31:59.675Z,7.40
2017-11-08T20:34:28.521Z,7.50
2017-11-08T20:36:57.450Z,7.33
2017-11-08T20:39:27.298Z,7.33
2017-11-08T20:41:55.848Z,7.70
2017-11-08T20:44:24.457Z,7.30
2017-11-08T20:46:52.775Z,8.53
2017-11-08T20:49:21.129Z,7.00
2017-11-08T20:51:50.210Z,8.00
2017-11-08T20:54:18.662Z,7.90
2017-11-08T20:56:47.244Z,7.90
2017-11-08T20:59:15.833Z,8.47
2017-11-08T21:01:44.173Z,8.67
2017-11-08T21:04:12.547Z,7.90
2017-11-08T21:06:41.621Z,7.97
2017-11-08T21:09:10.391Z,8.10
2017-11-08T21:11:39.572Z,7.97
2017-11-08T21:14:07.947Z,8.37
2017-11-08T21:16:36.407Z,8.00
2017-11-08T21:19:05.463Z,8.00
2017-11-08T21:21:33.319Z,7.87
2017-11-08T21:24:01.766Z,7.67
2017-11-08T21:26:30.161Z,9.20
2017-11-08T21:28:59.910Z,7.93
2017-11-08T21:31:28.246Z,7.10
2017-11-08T21:33:56.618Z,7.30
2017-11-08T21:36:25.434Z,7.33
2017-11-08T21:38:54.168Z,8.63
2017-11-08T21:41:22.581Z,7.90
2017-11-08T21:43:51.055Z,8.17
2017-11-08T21:46:19.447Z,7.60
2017-11-08T21:48:47.800Z,7.47
2017-11-08T21:51:16.222Z,7.63
2017-11-08T21:53:44.587Z,7.30
2017-11-08T21:56:13.153Z,7.77
2017-11-08T21:58:41.533Z,7.23
2017-11-08T22:01:10.052Z,7.40
2017-11-08T22:03:38.394Z,7.57
2017-11-08T22:06:06.825Z,7.17
2017-11-08T22:08:35.945Z,7.90
2017-11-08T22:11:05.937Z,7.97
2017-11-08T22:13:35.405Z,8.73
2017-11-08T22:16:03.948Z,8.00
2017-11-08T22:18:32.533Z,7.47
2017-11-08T22:21:02.497Z,7.13
2017-11-08T22:23:31.774Z,8.00
2017-11-08T22:26:00.161Z,7.63
2017-11-08T22:28:28.630Z,8.17
2017-11-08T22:30:56.984Z,7.83
2017-11-08T22:33:25.291Z,8.20
2017-11-08T22:35:53.684Z,7.30
2017-11-08T22:38:24.458Z,8.23
2017-11-08T22:40:55.440Z,6.83
2017-11-08T22:43:24.531Z,7.73
2017-11-08T22:45:52.913Z,7.70
2017-11-08T22:48:22.189Z,6.73
2017-11-08T22:50:51.005Z,7.10
2017-11-08T22:53:19.561Z,7.77
2017-11-08T22:55:47.916Z,7.60
2017-11-08T22:58:16.651Z,8.73
2017-11-08T23:00:45.047Z,8.37
2017-11-08T23:03:13.404Z,8.10
2017-11-08T23:05:42.404Z,7.63
2017-11-08T23:08:10.747Z,7.30
2017-11-08T23:10:39.125Z,7.70
2017-11-08T23:13:07.432Z,8.60
2017-11-08T23:15:35.880Z,7.30
2017-11-08T23:18:04.738Z,6.90
2017-11-08T23:20:33.901Z,7.70
2017-11-08T23:23:03.518Z,7.53
2017-11-08T23:25:31.888Z,7.57
2017-11-08T23:28:00.268Z,7.57
2017-11-08T23:30:28.451Z,8.13
2017-11-08T23:32:57.046Z,7.13
2017-11-08T23:35:26.124Z,7.40
2017-11-08T23:37:54.332Z,6.83
2017-11-08T23:40:22.486Z,6.93
2017-11-08T23:42:50.793Z,7.60
2017-11-08T23:45:20.177Z,6.93
2017-11-08T23:47:48.520Z,7.03
2017-11-08T23:50:16.911Z,6.80
2017-11-08T23:52:46.561Z,7.63
2017-11-08T23:55:14.919Z,7.23
2017-11-08T23:57:43.204Z,7.50
